Portada
METAR-TAF:

METAR-TAF

Aeroports :

Flemingsburg, Kentucky, Estats Units d'Amèrica

latitud: 38-32-30N, longitud: 083-44-36W, altitud: 278 m

Observació

L'informe es va fer fa 32 minuts, a les 01:55 UTC
Vent 3 kt del Sud-Oest
Temperatura 23°C
Humitat 78%
Pressió 1013 hPa
Visibilitat: 16.1 km
Núvols disperses a una alçada de 8000 ft

METAR: KFGX 260155Z AUTO 23003KT 10SM SCT080 23/19 A2990 RMK AO2 T02290188

Hora: 22:27 (02:27 UTC)


TAF: manca

Observacions i pronòstics meteorològics de més de 4000 aeroports (METAR i TAF).

Les estacions disponibles són els punts grocs i vermells al mapa.

Posi el ratolí al punt desitjat per veure el nom de l'estació.

Feu clic per veure les observacions i els pronòstics meteorològics.

Per canviar el mapa: feu clic els botons verds amb una creu de color negre per apropar; al botó verd amb un guió per allunyar la imatge; o en les fletxes verdes per a mapes adjacents.


METAR-TAF: